Time;durP1;ratioP1;P1;durP2;ratioP2;P2;SDS_P1;SDS_P2;PMS_P1;PMS_P2;Temp;Humidity;BMP_temperature;BMP_pressure;BME280_temperature;BME280_humidity;BME280_pressure;Samples;Min_cycle;Max_cycle;Signal;HPM_P1;HPM_P2
2023/02/22 00:01:49;;;;;;;34.25;12.27;;;;;;;5.21;100.00;101080.41;6138816;23;20244;-74
2023/02/22 00:04:19;;;;;;;16.20;11.32;;;;;;;4.85;100.00;101043.97;6113704;23;20591;-74
2023/02/22 00:06:47;;;;;;;29.48;12.23;;;;;;;4.39;100.00;100948.84;6137700;23;20690;-74
2023/02/22 00:09:19;;;;;;;26.10;11.95;;;;;;;5.35;100.00;101106.97;6130970;23;20056;-74
2023/02/22 00:11:47;;;;;;;17.80;10.43;;;;;;;5.01;100.00;101060.06;6111539;23;20018;-74
2023/02/22 00:14:14;;;;;;;22.40;12.95;;;;;;;4.51;100.00;100961.56;6121546;23;20033;-74
2023/02/22 00:16:40;;;;;;;20.33;11.07;;;;;;;4.59;100.00;100979.56;6111196;23;20029;-74
2023/02/22 00:19:07;;;;;;;24.95;8.85;;;;;;;5.42;100.00;101093.81;6112833;23;20086;-74
2023/02/22 00:21:33;;;;;;;16.15;10.25;;;;;;;5.37;100.00;101093.91;6135006;23;20062;-74
2023/02/22 00:24:15;;;;;;;13.68;10.25;;;;;;;5.38;100.00;101085.22;6112619;23;20033;-74
2023/02/22 00:26:42;;;;;;;17.35;10.35;;;;;;;4.59;100.00;100959.63;6139294;23;20031;-74
2023/02/22 00:29:08;;;;;;;15.93;9.95;;;;;;;5.18;100.00;101047.53;6138718;23;20021;-74
2023/02/22 00:31:38;;;;;;;23.75;11.85;;;;;;;4.81;100.00;100987.72;6136756;23;20032;-74
2023/02/22 00:34:04;;;;;;;27.63;11.93;;;;;;;5.10;100.00;101020.00;6120132;23;20140;-74
2023/02/22 00:36:31;;;;;;;20.52;10.27;;;;;;;5.10;100.00;101012.19;6136011;23;20033;-75
2023/02/22 00:38:57;;;;;;;13.98;10.15;;;;;;;5.45;100.00;101073.75;6115432;18;20025;-75
2023/02/22 00:41:23;;;;;;;14.32;10.48;;;;;;;5.24;100.00;101043.06;6069566;23;20257;-74
2023/02/22 00:43:52;;;;;;;14.52;10.43;;;;;;;5.40;100.00;101068.66;6076639;23;20047;-74
2023/02/22 00:46:19;;;;;;;12.23;9.77;;;;;;;4.85;100.00;100989.38;6041879;23;20057;-74
2023/02/22 00:48:45;;;;;;;17.15;8.23;;;;;;;4.09;100.00;100878.50;6074193;23;20169;-73
2023/02/22 00:51:11;;;;;;;13.50;9.30;;;;;;;4.82;100.00;100973.00;6047508;23;20295;-75
2023/02/22 00:53:38;;;;;;;13.00;9.57;;;;;;;5.35;100.00;101059.25;6047322;23;20045;-75
2023/02/22 00:56:05;;;;;;;7.80;6.85;;;;;;;5.09;100.00;101032.16;6051662;23;20019;-75
2023/02/22 00:58:32;;;;;;;18.85;9.27;;;;;;;4.96;100.00;101012.50;6046858;23;20023;-74
2023/02/22 01:00:58;;;;;;;11.60;8.57;;;;;;;4.59;100.00;100976.94;6049667;23;20030;-74
2023/02/22 01:03:25;;;;;;;16.08;8.85;;;;;;;4.77;100.00;101001.69;6040248;23;20277;-76
2023/02/22 01:05:51;;;;;;;16.90;7.22;;;;;;;4.94;100.00;101043.75;6051021;23;20077;-75
2023/02/22 01:08:18;;;;;;;9.07;8.15;;;;;;;4.26;100.00;100929.22;6047230;23;20080;-74
2023/02/22 01:10:45;;;;;;;11.77;8.80;;;;;;;4.19;100.00;100925.91;6047853;23;20018;-73
2023/02/22 01:13:12;;;;;;;9.95;7.47;;;;;;;4.98;100.00;101026.34;6047111;23;20027;-74
2023/02/22 01:15:41;;;;;;;9.20;7.88;;;;;;;5.03;100.00;101021.84;6047502;23;20026;-74
2023/02/22 01:18:08;;;;;;;12.30;7.32;;;;;;;4.86;100.00;100995.44;6028071;23;22602;-74
2023/02/22 01:20:35;;;;;;;6.18;5.78;;;;;;;4.45;100.00;100920.13;6064978;23;20280;-73
2023/02/22 01:23:05;;;;;;;12.63;8.07;;;;;;;4.13;100.00;100867.16;6044334;23;20037;-74
2023/02/22 01:25:32;;;;;;;8.25;6.75;;;;;;;4.47;100.00;100920.06;6019500;23;20019;-74
2023/02/22 01:28:00;;;;;;;16.48;7.95;;;;;;;4.95;100.00;100992.59;6049557;23;20041;-75
2023/02/22 01:30:31;;;;;;;11.85;8.80;;;;;;;5.08;100.00;101007.00;6025326;23;20093;-74
2023/02/22 01:32:59;;;;;;;10.32;7.00;;;;;;;5.07;100.00;100994.03;6033676;23;20564;-73
2023/02/22 01:35:29;;;;;;;12.55;8.43;;;;;;;4.34;100.00;100883.97;6044142;23;20046;-74
2023/02/22 01:37:57;;;;;;;10.95;9.27;;;;;;;4.24;100.00;100866.06;6042296;23;20529;-74
2023/02/22 01:40:28;;;;;;;10.20;7.25;;;;;;;4.96;100.00;100976.09;6042409;23;20537;-74
2023/02/22 01:42:59;;;;;;;10.18;8.70;;;;;;;4.72;100.00;100931.59;6048486;23;20070;-74
2023/02/22 01:45:53;;;;;;;11.55;8.55;;;;;;;5.11;100.00;100986.13;6040459;23;20082;-74
2023/02/22 01:48:32;;;;;;;10.65;8.95;;;;;;;5.12;100.00;100984.38;6044693;23;20354;-74
2023/02/22 01:51:09;;;;;;;10.48;7.00;;;;;;;4.19;100.00;100840.19;6018111;23;20440;-74
2023/02/22 01:53:41;;;;;;;17.02;8.13;;;;;;;4.82;100.00;100927.03;6048770;23;20022;-74
2023/02/22 01:56:09;;;;;;;12.02;7.32;;;;;;;5.23;100.00;100979.75;6048328;23;20676;-74
2023/02/22 01:58:40;;;;;;;18.58;16.92;;;;;;;4.85;100.00;100907.88;5926963;23;20350;-74
2023/02/22 02:01:08;;;;;;;7.55;6.97;;;;;;;5.26;100.00;100971.88;6027974;23;20039;-73
2023/02/22 02:03:38;;;;;;;7.93;7.20;;;;;;;4.70;100.00;100896.97;6048213;23;20504;-74
2023/02/22 02:06:10;;;;;;;11.63;6.88;;;;;;;5.21;100.00;100973.72;6047550;23;20038;-74
2023/02/22 02:09:05;;;;;;;14.27;8.70;;;;;;;5.24;100.00;100960.66;6051047;23;20042;-74
2023/02/22 02:11:32;;;;;;;15.20;8.50;;;;;;;5.26;100.00;100966.66;6015301;23;20549;-75
2023/02/22 02:13:59;;;;;;;13.93;7.70;;;;;;;4.18;100.00;100781.31;6045404;23;20030;-74
2023/02/22 02:16:41;;;;;;;9.55;7.22;;;;;;;5.27;100.00;100957.09;6019964;23;20031;-74
2023/02/22 02:19:46;;;;;;;14.88;9.30;;;;;;;5.29;100.00;100944.91;6042742;23;20433;-74
2023/02/22 02:22:35;;;;;;;8.77;7.88;;;;;;;5.32;100.00;100944.84;6015454;23;20034;-73
2023/02/22 02:25:27;;;;;;;10.15;6.25;;;;;;;5.26;100.00;100953.66;5997502;23;20031;-74
2023/02/22 02:28:09;;;;;;;7.68;5.88;;;;;;;5.31;100.00;100948.31;6049168;23;20037;-73
2023/02/22 02:31:05;;;;;;;12.00;8.00;;;;;;;5.30;100.00;100949.25;6047235;23;20022;-73
2023/02/22 02:33:46;;;;;;;7.50;6.90;;;;;;;5.12;100.00;100927.16;6046399;23;20097;-74
2023/02/22 02:36:21;;;;;;;8.57;6.00;;;;;;;4.62;100.00;100859.09;6048518;23;20109;-74
2023/02/22 02:38:56;;;;;;;12.73;8.45;;;;;;;5.11;100.00;100941.91;6048699;23;20029;-74
2023/02/22 02:41:28;;;;;;;9.73;7.35;;;;;;;4.63;100.00;100859.06;6042474;23;20014;-75
2023/02/22 02:44:14;;;;;;;16.38;8.95;;;;;;;5.13;100.00;100937.53;6047555;23;20530;-74
2023/02/22 02:46:55;;;;;;;8.43;7.22;;;;;;;4.91;100.00;100926.81;6048541;23;20042;-74
2023/02/22 02:49:27;;;;;;;9.30;7.13;;;;;;;3.98;100.00;100813.81;6045310;23;20026;-73
2023/02/22 02:51:55;;;;;;;11.40;6.97;;;;;;;4.86;100.00;100922.63;6044428;23;20319;-73
2023/02/22 02:54:23;;;;;;;11.05;6.82;;;;;;;4.79;100.00;100930.56;6046645;23;20084;-74
2023/02/22 02:56:50;;;;;;;8.20;7.40;;;;;;;4.57;100.00;100903.34;6046343;23;20018;-75
2023/02/22 02:59:25;;;;;;;9.10;8.27;;;;;;;4.74;100.00;100932.41;6045898;23;20029;-74
2023/02/22 03:02:32;;;;;;;7.57;5.55;;;;;;;4.72;100.00;100922.94;6044596;23;20039;-74
2023/02/22 03:05:37;;;;;;;7.78;7.13;;;;;;;4.70;100.00;100924.72;6020096;23;20022;-74
2023/02/22 03:08:13;;;;;;;9.25;7.55;;;;;;;4.48;100.00;100901.84;6041189;23;20034;-74
2023/02/22 03:11:13;;;;;;;7.78;7.07;;;;;;;4.71;100.00;100922.09;6046014;23;20033;-74
2023/02/22 03:13:55;;;;;;;9.05;8.13;;;;;;;4.77;100.00;100919.34;6024801;23;20026;-74
2023/02/22 03:16:44;;;;;;;7.32;6.72;;;;;;;4.76;100.00;100912.44;6046760;23;20077;-74
2023/02/22 03:19:25;;;;;;;7.57;6.88;;;;;;;4.64;100.00;100904.94;6044977;23;21713;-73
2023/02/22 03:21:54;;;;;;;9.68;6.45;;;;;;;4.78;100.00;100918.44;6051636;23;20022;-74
2023/02/22 03:24:27;;;;;;;8.15;7.50;;;;;;;4.09;100.00;100794.53;6014553;23;20598;-74
2023/02/22 03:27:08;;;;;;;8.15;7.38;;;;;;;4.84;100.00;100896.63;6046776;23;20293;-72
2023/02/22 03:29:38;;;;;;;7.28;6.68;;;;;;;4.32;100.00;100812.16;6044253;23;20017;-74
2023/02/22 03:32:10;;;;;;;9.85;7.22;;;;;;;4.90;100.00;100916.44;6048152;23;20097;-73
2023/02/22 03:34:41;;;;;;;17.20;9.52;;;;;;;4.93;100.00;100918.94;6042309;23;20026;-74
2023/02/22 03:37:18;;;;;;;10.00;7.82;;;;;;;4.82;100.00;100884.56;6047787;23;20023;-74
2023/02/22 03:39:48;;;;;;;8.35;7.10;;;;;;;5.06;100.00;100919.50;6048349;23;20093;-74
2023/02/22 03:42:22;;;;;;;12.25;8.18;;;;;;;3.99;100.00;100735.03;6048316;23;20071;-74
2023/02/22 03:44:51;;;;;;;10.55;8.15;;;;;;;4.80;100.00;100871.59;6047651;23;20030;-75
2023/02/22 03:47:27;;;;;;;8.50;7.40;;;;;;;5.06;100.00;100901.31;6046670;23;20018;-74
2023/02/22 03:50:05;;;;;;;8.13;7.40;;;;;;;5.25;100.00;100917.25;6042446;23;20034;-73
2023/02/22 03:52:33;;;;;;;7.55;6.43;;;;;;;5.05;100.00;100877.03;6044880;23;20038;-73
2023/02/22 03:55:01;;;;;;;9.07;8.07;;;;;;;5.26;100.00;100901.63;6016646;23;20041;-73
2023/02/22 03:57:33;;;;;;;8.90;7.28;;;;;;;5.29;100.00;100904.16;6046696;23;20034;-74
2023/02/22 03:59:59;;;;;;;11.35;7.70;;;;;;;4.50;100.00;100764.09;6048085;23;20663;-74
2023/02/22 04:02:26;;;;;;;7.47;6.78;;;;;;;4.75;100.00;100798.94;6018842;23;20688;-73
2023/02/22 04:04:52;;;;;;;10.98;7.80;;;;;;;4.85;100.00;100816.88;6050774;23;20025;-73
2023/02/22 04:07:18;;;;;;;8.98;7.80;;;;;;;5.12;100.00;100881.16;6050884;23;20051;-74
2023/02/22 04:09:47;;;;;;;10.35;8.02;;;;;;;5.46;100.00;100911.50;6053710;23;20030;-74
2023/02/22 04:12:14;;;;;;;8.15;7.35;;;;;;;5.30;100.00;100873.78;6054290;23;20030;-74
2023/02/22 04:14:40;;;;;;;10.38;8.95;;;;;;;5.34;100.00;100881.44;6044458;23;20018;-74
2023/02/22 04:17:06;;;;;;;11.00;9.90;;;;;;;5.49;100.00;100903.59;6050688;23;20038;-74
2023/02/22 04:19:33;;;;;;;13.35;10.35;;;;;;;5.38;100.00;100877.00;6051810;23;20022;-74
2023/02/22 04:22:00;;;;;;;11.18;9.48;;;;;;;5.17;100.00;100845.50;6051802;23;20038;-75
2023/02/22 04:24:26;;;;;;;15.00;7.28;;;;;;;5.55;100.00;100894.75;6047045;23;20078;-74
2023/02/22 04:26:55;;;;;;;7.80;6.38;;;;;;;5.02;100.00;100808.63;6045152;23;20434;-73
2023/02/22 04:29:22;;;;;;;9.85;7.15;;;;;;;5.03;100.00;100792.97;6048595;23;20021;-74
2023/02/22 04:31:49;;;;;;;9.70;8.30;;;;;;;5.53;100.00;100887.00;6048414;23;20089;-74
2023/02/22 04:34:15;;;;;;;14.02;7.80;;;;;;;5.50;100.00;100881.88;6045808;23;20032;-74
2023/02/22 04:36:43;;;;;;;19.95;9.18;;;;;;;5.33;100.00;100858.94;6022388;23;20027;-74
2023/02/22 04:39:10;;;;;;;10.77;8.13;;;;;;;5.48;100.00;100872.41;6020648;23;20095;-74
2023/02/22 04:41:36;;;;;;;10.25;8.73;;;;;;;4.98;100.00;100784.47;6046657;23;20094;-74
2023/02/22 04:44:03;;;;;;;18.80;8.20;;;;;;;5.45;100.00;100873.31;6049641;23;20014;-74
2023/02/22 04:46:30;;;;;;;8.25;6.15;;;;;;;3.91;100.00;100617.53;6018901;23;20171;-74
2023/02/22 04:48:56;;;;;;;15.35;8.82;;;;;;;5.50;100.00;100870.63;6048124;23;20022;-74
2023/02/22 04:51:23;;;;;;;12.88;9.02;;;;;;;5.47;100.00;100868.97;6047869;23;20270;-74
2023/02/22 04:53:50;;;;;;;10.02;8.13;;;;;;;5.51;100.00;100874.91;6049566;23;20919;-75
2023/02/22 04:56:17;;;;;;;16.02;10.15;;;;;;;3.88;100.00;100620.19;6023600;23;20041;-75
2023/02/22 04:58:44;;;;;;;13.77;8.07;;;;;;;5.14;100.00;100800.50;6048932;23;20026;-75
2023/02/22 05:01:10;;;;;;;8.85;6.97;;;;;;;5.06;100.00;100797.25;6049812;23;20167;-75
2023/02/22 05:03:37;;;;;;;14.38;8.23;;;;;;;5.52;100.00;100868.81;6022720;23;20026;-75
2023/02/22 05:06:04;;;;;;;7.95;7.35;;;;;;;5.37;100.00;100844.94;6026255;23;20101;-75
2023/02/22 05:08:31;;;;;;;10.50;8.45;;;;;;;4.89;100.00;100769.09;6027138;23;20040;-75
2023/02/22 05:10:57;;;;;;;9.82;7.70;;;;;;;4.58;100.00;100733.53;6048186;23;20202;-75
2023/02/22 05:13:23;;;;;;;10.73;8.05;;;;;;;5.34;100.00;100855.41;6018707;23;20023;-75
2023/02/22 05:15:50;;;;;;;12.77;8.48;;;;;;;4.72;100.00;100786.00;6049021;23;20981;-74
2023/02/22 05:18:16;;;;;;;12.82;7.55;;;;;;;5.29;100.00;100848.63;6052741;23;20037;-74
2023/02/22 05:20:43;;;;;;;11.60;7.40;;;;;;;4.51;100.00;100719.00;6046777;23;20269;-75
2023/02/22 05:23:09;;;;;;;10.65;8.27;;;;;;;4.80;100.00;100754.59;6042918;23;20105;-75
2023/02/22 05:25:36;;;;;;;12.05;8.90;;;;;;;4.29;100.00;100684.94;6047730;23;20094;-74
2023/02/22 05:28:09;;;;;;;9.40;7.28;;;;;;;4.99;100.00;100787.03;6045852;23;20355;-74
2023/02/22 05:30:38;;;;;;;9.50;6.43;;;;;;;5.26;100.00;100841.78;6048784;23;20059;-74
2023/02/22 05:33:06;;;;;;;9.23;7.13;;;;;;;5.30;100.00;100845.16;6024399;23;20026;-75
2023/02/22 05:35:32;;;;;;;7.45;6.85;;;;;;;5.30;100.00;100842.53;6048430;23;20088;-74
2023/02/22 05:38:01;;;;;;;12.02;8.05;;;;;;;5.09;100.00;100803.22;6048160;23;20026;-74
2023/02/22 05:40:29;;;;;;;17.00;8.50;;;;;;;5.32;100.00;100838.16;6044222;23;20224;-75
2023/02/22 05:42:56;;;;;;;8.52;6.20;;;;;;;5.34;100.00;100838.97;6047224;23;20026;-74
2023/02/22 05:45:25;;;;;;;9.98;8.95;;;;;;;5.15;100.00;100805.66;6044735;23;20034;-73
2023/02/22 05:47:52;;;;;;;8.50;7.35;;;;;;;5.23;100.00;100835.78;6048117;23;20085;-75
2023/02/22 05:50:19;;;;;;;18.95;9.68;;;;;;;4.44;100.00;100710.53;6019787;23;20050;-75
2023/02/22 05:52:50;;;;;;;14.68;8.77;;;;;;;5.03;100.00;100786.91;6048148;23;20046;-74
2023/02/22 05:55:18;;;;;;;8.57;7.63;;;;;;;4.99;100.00;100779.22;6044866;23;20053;-74
2023/02/22 05:57:46;;;;;;;13.23;8.50;;;;;;;5.30;100.00;100832.13;6047062;23;20097;-76
2023/02/22 06:00:19;;;;;;;12.77;8.13;;;;;;;5.25;100.00;100842.69;6043680;23;20030;-75
2023/02/22 06:02:45;;;;;;;8.23;6.85;;;;;;;4.74;100.00;100742.63;6043850;23;20072;-76
2023/02/22 06:05:12;;;;;;;16.25;8.93;;;;;;;4.56;100.00;100725.78;6044761;23;20038;-74
2023/02/22 06:07:39;;;;;;;13.55;7.05;;;;;;;4.91;100.00;100777.72;6045398;23;20226;-74
2023/02/22 06:10:05;;;;;;;11.35;10.07;;;;;;;4.72;100.00;100754.81;6048366;23;20034;-74
2023/02/22 06:12:32;;;;;;;13.45;7.05;;;;;;;4.78;100.00;100752.03;6020249;23;20018;-74
2023/02/22 06:14:58;;;;;;;15.45;11.93;;;;;;;5.06;100.00;100803.31;6048765;23;20022;-74
2023/02/22 06:17:27;;;;;;;10.98;7.28;;;;;;;5.11;100.00;100798.84;6014175;23;20121;-73
2023/02/22 06:19:53;;;;;;;7.88;7.28;;;;;;;4.49;100.00;100710.38;6047793;23;20022;-74
2023/02/22 06:22:20;;;;;;;10.27;9.18;;;;;;;4.90;100.00;100791.63;6045826;23;20097;-73
2023/02/22 06:24:46;;;;;;;11.57;7.78;;;;;;;4.85;100.00;100772.69;6042014;23;20069;-74
2023/02/22 06:27:12;;;;;;;11.80;9.30;;;;;;;4.14;100.00;100639.44;6047472;23;20533;-74
2023/02/22 06:29:44;;;;;;;8.68;7.85;;;;;;;5.18;100.00;100828.13;6042131;23;20426;-74
2023/02/22 06:32:11;;;;;;;20.40;10.80;;;;;;;5.16;100.00;100820.34;6039619;23;20157;-73
2023/02/22 06:34:42;;;;;;;14.93;8.52;;;;;;;4.60;100.00;100745.59;6034667;23;20037;-74
2023/02/22 06:37:08;;;;;;;12.50;8.43;;;;;;;4.96;100.00;100783.66;6048513;23;20048;-75
2023/02/22 06:39:35;;;;;;;13.20;8.52;;;;;;;3.39;100.00;100517.69;6014111;23;20031;-74
2023/02/22 06:42:02;;;;;;;13.07;8.25;;;;;;;4.80;100.00;100765.84;6050657;23;20100;-73
2023/02/22 06:44:28;;;;;;;16.02;9.68;;;;;;;5.11;100.00;100836.97;6048371;23;20536;-74
2023/02/22 06:46:58;;;;;;;11.88;8.73;;;;;;;4.46;100.00;100749.47;6052136;23;20575;-75
2023/02/22 06:49:26;;;;;;;10.45;7.28;;;;;;;5.06;100.00;100831.91;6047391;23;20030;-75
2023/02/22 06:51:53;;;;;;;7.82;7.03;;;;;;;3.60;100.00;100581.97;6048692;23;20014;-76
2023/02/22 06:54:21;;;;;;;8.57;7.78;;;;;;;4.74;100.00;100780.78;6046004;23;20115;-72
2023/02/22 06:56:48;;;;;;;17.23;6.35;;;;;;;4.10;100.00;100671.59;6047733;23;20050;-72
2023/02/22 06:59:15;;;;;;;13.98;8.95;;;;;;;4.31;100.00;100709.13;6048612;23;20481;-71
2023/02/22 07:01:42;;;;;;;9.52;6.88;;;;;;;5.05;100.00;100837.16;6049225;23;20100;-72
2023/02/22 07:04:08;;;;;;;8.02;7.30;;;;;;;4.93;100.00;100812.31;6016063;23;20038;-71
2023/02/22 07:06:35;;;;;;;11.77;8.60;;;;;;;4.91;100.00;100816.72;6051747;23;20030;-72
2023/02/22 07:09:02;;;;;;;12.00;7.85;;;;;;;5.07;100.00;100843.16;6018934;23;20094;-72
2023/02/22 07:11:28;;;;;;;7.28;6.72;;;;;;;4.91;100.00;100808.91;6044800;23;20483;-71
2023/02/22 07:13:55;;;;;;;13.18;8.48;;;;;;;4.59;100.00;100776.81;6042605;23;20146;-71
2023/02/22 07:16:21;;;;;;;8.45;7.63;;;;;;;3.30;100.00;100531.72;6021385;23;20482;-72
2023/02/22 07:18:48;;;;;;;8.60;7.43;;;;;;;5.15;100.00;100828.19;6040816;23;20030;-72
2023/02/22 07:21:14;;;;;;;7.55;6.78;;;;;;;4.76;100.00;100784.19;6047875;23;20431;-72
2023/02/22 07:23:41;;;;;;;10.65;7.28;;;;;;;4.96;100.00;100792.28;6042176;23;20016;-72
2023/02/22 07:26:07;;;;;;;8.13;7.43;;;;;;;5.07;100.00;100814.56;6043857;23;20398;-72
2023/02/22 07:28:34;;;;;;;10.02;6.40;;;;;;;4.84;100.00;100777.03;5990294;23;20101;-71
2023/02/22 07:31:00;;;;;;;9.80;7.10;;;;;;;4.37;100.00;100698.56;6043043;23;20089;-72
2023/02/22 07:33:27;;;;;;;7.45;6.85;;;;;;;4.83;100.00;100749.34;5994577;23;20418;-72
2023/02/22 07:35:53;;;;;;;7.70;7.07;;;;;;;4.98;100.00;100774.91;6041303;23;20023;-72
2023/02/22 07:38:20;;;;;;;7.30;6.50;;;;;;;5.14;100.00;100801.34;6027923;23;20030;-71
2023/02/22 07:40:46;;;;;;;8.82;7.32;;;;;;;5.37;100.00;100818.03;6050590;23;20029;-72
2023/02/22 07:43:20;;;;;;;9.88;7.05;;;;;;;5.45;100.00;100821.28;6051559;23;20055;-73
2023/02/22 07:45:49;;;;;;;8.05;7.35;;;;;;;5.61;100.00;100816.47;6049916;23;20078;-72
2023/02/22 07:48:16;;;;;;;11.52;8.88;;;;;;;5.05;100.00;100712.31;6051622;23;20422;-71
2023/02/22 07:50:44;;;;;;;7.97;7.13;;;;;;;5.77;100.00;100815.13;6050813;23;20544;-75
2023/02/22 07:53:18;;;;;;;6.93;6.43;;;;;;;5.84;100.00;100838.38;6050933;23;20784;-75
2023/02/22 07:55:44;;;;;;;8.73;7.93;;;;;;;5.68;100.00;100772.91;6018264;23;20102;-75
2023/02/22 07:58:13;;;;;;;9.00;7.20;;;;;;;5.46;100.00;100708.47;6049851;23;20037;-75
2023/02/22 08:00:42;;;;;;;8.45;7.65;;;;;;;6.03;100.00;100791.78;6047360;23;20167;-71
2023/02/22 08:03:12;;;;;;;7.55;6.47;;;;;;;5.95;100.00;100777.28;6027571;23;20034;-71
2023/02/22 08:05:40;;;;;;;8.40;7.28;;;;;;;5.88;100.00;100741.88;6020763;23;20092;-71
2023/02/22 08:08:07;;;;;;;11.02;6.95;;;;;;;6.52;100.00;100796.25;6050499;23;20540;-71
2023/02/22 08:10:34;;;;;;;7.10;6.50;;;;;;;6.56;100.00;100795.25;6046224;23;20096;-71
2023/02/22 08:13:02;;;;;;;8.02;6.88;;;;;;;6.56;100.00;100797.84;6044850;23;20038;-71
2023/02/22 08:15:33;;;;;;;10.48;8.05;;;;;;;6.70;100.00;100786.97;6049695;23;20027;-71
2023/02/22 08:18:02;;;;;;;7.32;6.70;;;;;;;5.68;100.00;100607.09;6051388;23;20070;-71
2023/02/22 08:20:29;;;;;;;9.82;7.43;;;;;;;6.85;100.00;100767.28;6047070;23;20053;-71
2023/02/22 08:22:57;;;;;;;11.02;7.70;;;;;;;6.62;100.00;100710.75;6049342;23;20430;-74
2023/02/22 08:25:26;;;;;;;18.13;9.48;;;;;;;6.04;100.00;100574.69;6023833;23;20016;-72
2023/02/22 08:27:58;;;;;;;11.07;7.93;;;;;;;7.25;100.00;100736.28;6047689;23;20209;-73
2023/02/22 08:30:25;;;;;;;9.38;8.25;;;;;;;7.18;100.00;100741.75;6045731;23;20694;-70
2023/02/22 08:32:52;;;;;;;9.75;7.18;;;;;;;7.11;100.00;100729.81;6051158;23;20338;-72
2023/02/22 08:35:20;;;;;;;8.30;7.45;;;;;;;7.39;100.00;100767.94;6049318;23;20457;-71
2023/02/22 08:37:52;;;;;;;8.35;7.65;;;;;;;6.34;100.00;100580.56;6045980;23;20041;-70
2023/02/22 08:40:21;;;;;;;10.23;8.17;;;;;;;6.96;100.00;100686.06;6051368;23;20048;-70
2023/02/22 08:42:48;;;;;;;8.30;7.43;;;;;;;7.04;100.00;100677.94;6051318;23;20307;-71
2023/02/22 08:45:16;;;;;;;10.38;7.07;;;;;;;7.75;100.00;100751.75;6047102;23;20022;-70
2023/02/22 08:47:42;;;;;;;9.85;8.88;;;;;;;7.80;100.00;100747.22;6028731;23;20092;-70
2023/02/22 08:50:16;;;;;;;12.35;8.25;;;;;;;7.58;100.00;100711.50;6050464;23;20015;-70
2023/02/22 08:52:43;;;;;;;8.57;7.75;;;;;;;7.95;100.00;100748.34;6052717;23;20038;-70
2023/02/22 08:55:09;;;;;;;9.50;7.32;;;;;;;8.00;100.00;100743.81;6025250;23;20275;-69
2023/02/22 08:57:36;;;;;;;8.70;7.60;;;;;;;7.12;100.00;100585.38;6031591;23;20094;-71
2023/02/22 09:00:04;;;;;;;11.75;8.18;;;;;;;7.87;100.00;100665.03;6051996;23;20193;-70
2023/02/22 09:02:30;;;;;;;10.48;8.77;;;;;;;7.91;100.00;100671.84;6026626;23;20667;-71
2023/02/22 09:04:57;;;;;;;8.77;7.90;;;;;;;8.38;100.00;100741.38;6020160;23;20091;-70
2023/02/22 09:07:23;;;;;;;8.75;7.88;;;;;;;8.43;100.00;100735.97;6047561;23;20174;-70
2023/02/22 09:09:49;;;;;;;8.40;7.57;;;;;;;8.60;100.00;100730.88;6046773;23;20430;-74
2023/02/22 09:12:16;;;;;;;10.80;8.80;;;;;;;8.64;100.00;100721.09;6018040;23;20053;-70
2023/02/22 09:14:42;;;;;;;11.38;8.35;;;;;;;8.91;100.00;100740.81;6034334;23;20030;-72
2023/02/22 09:17:09;;;;;;;10.30;9.10;;;;;;;8.95;100.00;100724.03;6043108;23;20028;-70
2023/02/22 09:19:35;;;;;;;18.98;7.82;;;;;;;9.04;100.00;100740.25;6042600;23;20049;-70
2023/02/22 09:22:02;;;;;;;17.27;9.70;;;;;;;9.10;100.00;100722.53;6047040;23;20053;-72
2023/02/22 09:24:28;;;;;;;11.82;9.30;;;;;;;8.86;100.00;100679.13;6044915;23;20022;-71
2023/02/22 09:26:55;;;;;;;12.07;8.70;;;;;;;8.45;100.00;100587.66;6021856;23;20054;-74
2023/02/22 09:29:23;;;;;;;11.93;9.23;;;;;;;9.38;100.00;100721.22;6042012;23;20575;-74
2023/02/22 09:31:52;;;;;;;12.68;8.90;;;;;;;8.63;100.00;100578.97;6044577;23;20053;-73
2023/02/22 09:34:21;;;;;;;7.15;6.38;;;;;;;9.12;100.00;100650.00;6020198;23;20053;-71
2023/02/22 09:36:50;;;;;;;9.60;8.25;;;;;;;9.16;100.00;100625.38;6050727;23;20388;-71
2023/02/22 09:39:17;;;;;;;12.68;7.55;;;;;;;9.60;100.00;100668.66;6049792;23;20022;-70
2023/02/22 09:41:51;;;;;;;7.53;6.93;;;;;;;9.69;100.00;100678.69;6054098;23;20038;-70
2023/02/22 09:44:36;;;;;;;14.73;7.38;;;;;;;9.10;100.00;100589.00;6050446;23;20096;-72
2023/02/22 09:47:03;;;;;;;9.20;7.28;;;;;;;9.68;100.00;100678.75;6043294;23;20105;-72
2023/02/22 09:49:37;;;;;;;9.70;8.35;;;;;;;9.81;100.00;100656.28;6050681;23;20026;-70
2023/02/22 09:52:12;;;;;;;11.45;7.95;;;;;;;9.75;100.00;100625.16;6052530;23;20190;-72
2023/02/22 09:54:51;;;;;;;8.35;7.60;;;;;;;10.10;100.00;100646.97;6054922;23;20074;-71
2023/02/22 09:57:27;;;;;;;8.68;7.15;;;;;;;9.84;100.00;100577.47;6051830;23;20626;-71
2023/02/22 10:00:15;;;;;;;8.13;7.43;;;;;;;10.38;100.00;100616.69;6053097;23;20026;-72
2023/02/22 10:03:10;;;;;;;8.93;6.80;;;;;;;10.22;100.00;100592.16;6052463;23;20062;-72
2023/02/22 10:05:40;;;;;;;7.93;6.72;;;;;;;10.57;100.00;100599.06;6053880;23;20096;-71
2023/02/22 10:08:13;;;;;;;7.95;7.18;;;;;;;10.41;98.42;100573.72;6027475;23;20022;-70
2023/02/22 10:10:47;;;;;;;11.70;9.77;;;;;;;10.33;98.29;100567.09;6027184;23;20030;-72
2023/02/22 10:14:05;;;;;;;11.63;7.82;;;;;;;10.36;97.93;100569.56;6019432;23;20469;-69
2023/02/22 10:16:45;;;;;;;10.23;7.82;;;;;;;10.37;97.25;100554.69;5966991;23;20323;-70
2023/02/22 10:19:31;;;;;;;9.48;8.32;;;;;;;10.32;95.91;100535.69;5941485;24;20007;-69
2023/02/22 10:22:15;;;;;;;8.77;7.50;;;;;;;10.43;95.03;100535.16;6024654;23;20605;-71
2023/02/22 10:24:55;;;;;;;12.80;8.10;;;;;;;10.24;94.78;100486.25;6011461;23;20069;-72
2023/02/22 10:27:53;;;;;;;11.98;7.60;;;;;;;9.53;92.66;100324.09;6046962;23;20082;-71
2023/02/22 10:30:27;;;;;;;14.98;8.13;;;;;;;10.65;92.65;100493.66;5994910;23;20077;-71
2023/02/22 10:33:11;;;;;;;10.23;8.00;;;;;;;10.73;91.20;100488.81;6021464;23;20766;-72
2023/02/22 10:35:40;;;;;;;8.20;7.47;;;;;;;10.77;91.20;100458.00;6022952;23;20030;-71
2023/02/22 10:38:19;;;;;;;8.23;7.35;;;;;;;11.14;90.25;100472.47;6024532;23;20030;-70
2023/02/22 10:40:53;;;;;;;8.70;7.82;;;;;;;11.28;88.25;100476.09;6042051;23;20033;-72
2023/02/22 10:43:20;;;;;;;9.85;8.00;;;;;;;11.60;88.28;100484.69;6044279;23;20228;-72
2023/02/22 10:45:47;;;;;;;9.02;7.80;;;;;;;11.70;87.62;100454.28;6046846;23;20032;-71
2023/02/22 10:48:17;;;;;;;11.35;8.88;;;;;;;12.01;85.50;100451.56;6047810;23;20037;-72
2023/02/22 10:50:45;;;;;;;10.02;7.47;;;;;;;10.97;83.06;100252.06;6048551;23;20101;-71
2023/02/22 10:53:14;;;;;;;12.30;8.38;;;;;;;12.15;81.11;100402.44;6046929;23;20033;-71
2023/02/22 10:56:08;;;;;;;10.48;8.95;;;;;;;12.21;80.38;100382.78;6016367;23;20530;-71
2023/02/22 10:58:40;;;;;;;9.15;8.27;;;;;;;12.17;80.44;100373.41;6047345;23;20026;-71
2023/02/22 11:01:23;;;;;;;11.93;9.55;;;;;;;12.23;78.89;100365.13;6044670;23;20045;-71
2023/02/22 11:04:03;;;;;;;9.80;8.35;;;;;;;12.27;77.98;100353.44;6045619;23;20038;-71
2023/02/22 11:06:31;;;;;;;12.43;8.07;;;;;;;11.94;78.42;100257.34;6017692;23;20459;-72
2023/02/22 11:09:14;;;;;;;9.20;8.00;;;;;;;12.66;77.20;100346.50;6045010;23;20078;-71
2023/02/22 11:11:45;;;;;;;9.43;7.93;;;;;;;12.67;76.65;100308.72;6047509;23;20073;-70
2023/02/22 11:14:25;;;;;;;14.13;8.80;;;;;;;12.50;74.54;100280.03;6048426;23;20543;-71
2023/02/22 11:16:55;;;;;;;9.68;7.50;;;;;;;12.40;75.68;100263.19;6024725;23;20029;-72
2023/02/22 11:19:27;;;;;;;11.27;8.10;;;;;;;12.44;74.89;100285.72;6049115;23;20231;-72
2023/02/22 11:22:21;;;;;;;9.37;7.97;;;;;;;12.21;75.23;100232.84;6054698;23;20087;-73
2023/02/22 11:25:01;;;;;;;10.90;8.65;;;;;;;12.66;76.00;100298.28;6051396;23;20397;-70
2023/02/22 11:27:36;;;;;;;8.88;7.78;;;;;;;12.22;74.77;100197.69;6055632;23;20520;-72
2023/02/22 11:30:33;;;;;;;13.18;8.27;;;;;;;12.31;74.18;100215.47;6049946;23;20030;-71
2023/02/22 11:33:22;;;;;;;10.75;8.20;;;;;;;12.24;74.40;100193.16;6022057;23;20042;-70
2023/02/22 11:36:01;;;;;;;8.48;7.70;;;;;;;12.74;74.45;100264.38;6027365;23;20030;-71
2023/02/22 11:38:32;;;;;;;14.45;8.55;;;;;;;12.53;75.03;100217.50;6021911;23;20051;-71